Time;durP1;ratioP1;P1;durP2;ratioP2;P2;SDS_P1;SDS_P2;PMS_P1;PMS_P2;Temp;Humidity;BMP_temperature;BMP_pressure;BME280_temperature;BME280_humidity;BME280_pressure;Samples;Min_cycle;Max_cycle;Signal;HPM_P1;HPM_P2
2021/08/17 00:02:07;;;;;;;;;;;;;;;;;;5041688;28;19928;-66
2021/08/17 00:04:34;;;;;;;;;;;;;;;;;;5047936;28;19925;-70
2021/08/17 00:07:01;;;;;;;;;;;;;;;;;;5042164;28;19931;-66
2021/08/17 00:09:28;;;;;;;;;;;;;;;;;;5044465;28;19944;-67
2021/08/17 00:11:55;;;;;;;;;;;;;;;;;;5046252;28;19929;-65
2021/08/17 00:14:22;;;;;;;;;;;;;;;;;;5047215;28;19948;-66
2021/08/17 00:16:49;;;;;;;;;;;;;;;;;;5048200;28;20215;-65
2021/08/17 00:19:16;;;;;;;;;;;;;;;;;;5041077;28;19925;-66
2021/08/17 00:21:43;;;;;;;;;;;;;;;;;;5050251;28;19925;-65
2021/08/17 00:24:10;;;;;;;;;;;;;;;;;;5047099;28;19932;-66
2021/08/17 00:26:37;;;;;;;;;;;;;;;;;;5041990;28;19932;-65
2021/08/17 00:29:04;;;;;;;;;;;;;;;;;;5047471;28;19933;-66
2021/08/17 00:31:31;;;;;;;;;;;;;;;;;;5052472;28;20377;-65
2021/08/17 00:33:58;;;;;;;;;;;;;;;;;;5045083;28;20015;-65
2021/08/17 00:36:25;;;;;;;;;;;;;;;;;;5046013;28;19935;-67
2021/08/17 00:38:52;;;;;;;;;;;;;;;;;;5049128;28;19925;-67
2021/08/17 00:41:19;;;;;;;;;;;;;;;;;;5047499;28;19931;-67
2021/08/17 00:43:46;;;;;;;;;;;;;;;;;;5044284;28;19924;-66
2021/08/17 00:46:13;;;;;;;;;;;;;;;;;;5040341;28;20008;-66
2021/08/17 00:48:40;;;;;;;;;;;;;;;;;;5042185;28;19932;-65
2021/08/17 00:51:07;;;;;;;;;;;;;;;;;;5043130;28;20008;-66
2021/08/17 00:53:34;;;;;;;;;;;;;;;;;;5047049;28;20300;-66
2021/08/17 00:56:01;;;;;;;;;;;;;;;;;;5051251;28;19924;-66
2021/08/17 00:58:28;;;;;;;;;;;;;;;;;;5048077;28;19978;-65
2021/08/17 01:00:56;;;;;;;;;;;;;;;;;;5046060;28;19931;-66
2021/08/17 01:03:23;;;;;;;;;;;;;;;;;;5046335;28;19925;-65
2021/08/17 01:05:50;;;;;;;;;;;;;;;;;;5046211;28;19929;-65
2021/08/17 01:08:17;;;;;;;;;;;;;;;;;;5052971;28;19929;-67
2021/08/17 01:10:44;;;;;;;;;;;;;;;;;;5048703;28;19926;-65
2021/08/17 01:13:11;;;;;;;;;;;;;;;;;;5051224;28;19924;-65
2021/08/17 01:15:38;;;;;;;;;;;;;;;;;;5046376;28;19929;-65
2021/08/17 01:18:06;;;;;;;;;;;;;;;;;;5047826;28;19924;-65
2021/08/17 01:20:33;;;;;;;;;;;;;;;;;;5053120;28;20454;-65
2021/08/17 01:23:00;;;;;;;;;;;;;;;;;;5050859;28;19935;-66
2021/08/17 01:25:27;;;;;;;;;;;;;;;;;;5044763;28;20441;-65
2021/08/17 01:27:54;;;;;;;;;;;;;;;;;;5051070;28;19924;-65
2021/08/17 01:30:21;;;;;;;;;;;;;;;;;;5053300;28;19932;-66
2021/08/17 01:32:48;;;;;;;;;;;;;;;;;;5047248;28;19939;-66
2021/08/17 01:35:15;;;;;;;;;;;;;;;;;;5048459;28;20408;-66
2021/08/17 01:37:42;;;;;;;;;;;;;;;;;;5054840;28;19925;-66
2021/08/17 01:40:09;;;;;;;;;;;;;;;;;;5046786;28;19931;-66
2021/08/17 01:42:36;;;;;;;;;;;;;;;;;;5050508;28;19932;-66
2021/08/17 01:45:03;;;;;;;;;;;;;;;;;;5051523;28;19932;-66
2021/08/17 01:47:30;;;;;;;;;;;;;;;;;;5048579;28;19932;-66
2021/08/17 01:49:59;;;;;;;;;;;;;;;;;;5045953;28;20412;-65
2021/08/17 01:52:26;;;;;;;;;;;;;;;;;;5050663;28;19925;-66
2021/08/17 01:54:53;;;;;;;;;;;;;;;;;;5051536;28;19924;-67
2021/08/17 01:57:20;;;;;;;;;;;;;;;;;;5046383;28;20305;-66
2021/08/17 01:59:47;;;;;;;;;;;;;;;;;;5045850;28;19929;-67
2021/08/17 02:02:14;;;;;;;;;;;;;;;;;;5042198;28;19931;-66
2021/08/17 02:04:41;;;;;;;;;;;;;;;;;;5046904;28;19925;-68
2021/08/17 02:07:08;;;;;;;;;;;;;;;;;;5049831;28;20295;-65
2021/08/17 02:09:35;;;;;;;;;;;;;;;;;;5046437;28;19932;-70
2021/08/17 02:12:02;;;;;;;;;;;;;;;;;;5049977;28;19932;-66
2021/08/17 02:14:29;;;;;;;;;;;;;;;;;;5045980;28;19925;-67
2021/08/17 02:16:56;;;;;;;;;;;;;;;;;;5050015;28;19925;-67
2021/08/17 02:19:23;;;;;;;;;;;;;;;;;;5052143;28;20256;-66
2021/08/17 02:21:50;;;;;;;;;;;;;;;;;;5052968;28;19924;-67
2021/08/17 02:24:17;;;;;;;;;;;;;;;;;;5050612;28;19924;-67
2021/08/17 02:26:44;;;;;;;;;;;;;;;;;;5049045;28;19925;-66
2021/08/17 02:29:10;;;;;;;;;;;;;;;;;;5051721;28;19932;-66
2021/08/17 02:31:37;;;;;;;;;;;;;;;;;;5047129;28;20316;-66
2021/08/17 02:34:04;;;;;;;;;;;;;;;;;;5051993;28;19924;-65
2021/08/17 02:36:31;;;;;;;;;;;;;;;;;;5047945;28;19924;-67
2021/08/17 02:38:58;;;;;;;;;;;;;;;;;;5052736;28;20663;-66
2021/08/17 02:41:25;;;;;;;;;;;;;;;;;;5051218;28;19947;-67
2021/08/17 02:43:52;;;;;;;;;;;;;;;;;;5051920;28;19940;-66
2021/08/17 02:46:19;;;;;;;;;;;;;;;;;;5048922;28;19925;-66
2021/08/17 02:48:46;;;;;;;;;;;;;;;;;;5050505;28;19933;-67
2021/08/17 02:51:14;;;;;;;;;;;;;;;;;;5048132;28;19924;-65
2021/08/17 02:53:41;;;;;;;;;;;;;;;;;;5052068;28;19925;-66
2021/08/17 02:56:08;;;;;;;;;;;;;;;;;;5049700;28;20369;-67
2021/08/17 02:58:36;;;;;;;;;;;;;;;;;;5044089;28;19948;-66
2021/08/17 03:01:03;;;;;;;;;;;;;;;;;;5047859;28;19925;-65
2021/08/17 03:03:30;;;;;;;;;;;;;;;;;;5047873;28;19932;-66
2021/08/17 03:05:57;;;;;;;;;;;;;;;;;;5041158;28;20409;-66
2021/08/17 03:08:24;;;;;;;;;;;;;;;;;;5041781;28;19933;-66
2021/08/17 03:10:51;;;;;;;;;;;;;;;;;;5050382;28;19924;-66
2021/08/17 03:13:18;;;;;;;;;;;;;;;;;;5050205;28;19935;-69
2021/08/17 03:15:45;;;;;;;;;;;;;;;;;;5045198;28;20381;-67
2021/08/17 03:18:12;;;;;;;;;;;;;;;;;;5043392;28;19925;-65
2021/08/17 03:20:39;;;;;;;;;;;;;;;;;;5046790;28;19972;-68
2021/08/17 03:23:06;;;;;;;;;;;;;;;;;;5051816;28;19932;-66
2021/08/17 03:25:33;;;;;;;;;;;;;;;;;;5048369;28;19963;-66
2021/08/17 03:28:00;;;;;;;;;;;;;;;;;;5044820;28;20286;-65
2021/08/17 03:30:27;;;;;;;;;;;;;;;;;;5049209;28;20031;-66
2021/08/17 03:32:54;;;;;;;;;;;;;;;;;;5049343;28;19925;-66
2021/08/17 03:35:21;;;;;;;;;;;;;;;;;;5052934;28;19931;-66
2021/08/17 03:37:48;;;;;;;;;;;;;;;;;;5045374;28;19929;-66
2021/08/17 03:40:15;;;;;;;;;;;;;;;;;;5047163;28;19932;-66
2021/08/17 03:42:42;;;;;;;;;;;;;;;;;;5062341;22;19964;-69
2021/08/17 03:45:09;;;;;;;;;;;;;;;;;;5049825;28;19924;-69
2021/08/17 03:47:36;;;;;;;;;;;;;;;;;;5045506;28;19948;-69
2021/08/17 03:50:03;;;;;;;;;;;;;;;;;;5051813;28;19929;-69
2021/08/17 03:52:30;;;;;;;;;;;;;;;;;;5042617;28;19931;-70
2021/08/17 03:54:56;;;;;;;;;;;;;;;;;;5043985;28;20084;-69
2021/08/17 03:57:23;;;;;;;;;;;;;;;;;;5045942;28;20302;-70
2021/08/17 03:59:50;;;;;;;;;;;;;;;;;;5046811;28;19931;-69
2021/08/17 04:02:17;;;;;;;;;;;;;;;;;;5046471;28;19933;-70
2021/08/17 04:04:45;;;;;;;;;;;;;;;;;;5044181;28;20035;-69
2021/08/17 04:07:12;;;;;;;;;;;;;;;;;;5045960;28;19939;-70
2021/08/17 04:09:39;;;;;;;;;;;;;;;;;;5046945;28;19935;-69
2021/08/17 04:12:06;;;;;;;;;;;;;;;;;;5047792;28;20008;-70
2021/08/17 04:14:33;;;;;;;;;;;;;;;;;;5048968;28;19931;-70
2021/08/17 04:17:00;;;;;;;;;;;;;;;;;;5040832;28;19925;-69
2021/08/17 04:19:27;;;;;;;;;;;;;;;;;;5044899;28;19936;-70
2021/08/17 04:21:54;;;;;;;;;;;;;;;;;;5040729;28;20300;-69
2021/08/17 04:24:21;;;;;;;;;;;;;;;;;;5040330;28;19932;-69
2021/08/17 04:26:48;;;;;;;;;;;;;;;;;;5046949;28;19925;-69
2021/08/17 04:29:15;;;;;;;;;;;;;;;;;;5041261;28;19933;-69
2021/08/17 04:31:42;;;;;;;;;;;;;;;;;;5044277;28;20299;-70
2021/08/17 04:34:09;;;;;;;;;;;;;;;;;;5049891;28;19931;-70
2021/08/17 04:36:36;;;;;;;;;;;;;;;;;;5047933;28;19924;-70
2021/08/17 04:39:03;;;;;;;;;;;;;;;;;;5047819;28;19925;-70
2021/08/17 04:41:29;;;;;;;;;;;;;;;;;;5050745;28;20353;-70
2021/08/17 04:43:56;;;;;;;;;;;;;;;;;;5051231;28;20140;-70
2021/08/17 04:46:23;;;;;;;;;;;;;;;;;;5046209;28;19924;-70
2021/08/17 04:48:50;;;;;;;;;;;;;;;;;;5050469;28;19924;-70
2021/08/17 04:51:18;;;;;;;;;;;;;;;;;;5047222;28;20334;-70
2021/08/17 04:53:45;;;;;;;;;;;;;;;;;;5046794;28;19925;-70
2021/08/17 04:56:12;;;;;;;;;;;;;;;;;;5047529;28;19967;-69
2021/08/17 04:58:39;;;;;;;;;;;;;;;;;;5046644;28;19932;-70
2021/08/17 05:01:06;;;;;;;;;;;;;;;;;;5048311;28;19976;-70
2021/08/17 05:03:33;;;;;;;;;;;;;;;;;;5045342;28;19924;-69
2021/08/17 05:06:00;;;;;;;;;;;;;;;;;;5040659;28;20016;-69
2021/08/17 05:08:27;;;;;;;;;;;;;;;;;;5046272;28;20300;-69
2021/08/17 05:10:54;;;;;;;;;;;;;;;;;;5046548;28;19924;-70
2021/08/17 05:13:21;;;;;;;;;;;;;;;;;;5042409;28;19939;-70
2021/08/17 05:15:48;;;;;;;;;;;;;;;;;;5049028;28;19925;-70
2021/08/17 05:18:15;;;;;;;;;;;;;;;;;;5047134;28;19924;-70
2021/08/17 05:20:42;;;;;;;;;;;;;;;;;;5045027;28;19924;-70
2021/08/17 05:23:09;;;;;;;;;;;;;;;;;;5044889;28;19932;-70
2021/08/17 05:25:36;;;;;;;;;;;;;;;;;;5047938;28;20459;-70
2021/08/17 05:28:03;;;;;;;;;;;;;;;;;;5043370;28;19951;-69
2021/08/17 05:30:30;;;;;;;;;;;;;;;;;;5044517;28;20364;-70
2021/08/17 05:32:57;;;;;;;;;;;;;;;;;;5043979;28;19952;-70
2021/08/17 05:35:24;;;;;;;;;;;;;;;;;;5049140;28;19976;-71
2021/08/17 05:37:51;;;;;;;;;;;;;;;;;;5047694;28;19925;-69
2021/08/17 05:40:18;;;;;;;;;;;;;;;;;;5041837;28;19925;-70
2021/08/17 05:42:45;;;;;;;;;;;;;;;;;;5046350;28;20015;-70
2021/08/17 05:45:12;;;;;;;;;;;;;;;;;;5041106;28;19925;-71
2021/08/17 05:47:39;;;;;;;;;;;;;;;;;;5049801;28;19931;-71
2021/08/17 05:50:06;;;;;;;;;;;;;;;;;;5062571;28;19935;-69
2021/08/17 05:52:33;;;;;;;;;;;;;;;;;;5051303;28;20396;-70
2021/08/17 05:55:00;;;;;;;;;;;;;;;;;;5051706;28;19931;-70
2021/08/17 05:57:27;;;;;;;;;;;;;;;;;;5051209;28;20125;-69
2021/08/17 05:59:56;;;;;;;;;;;;;;;;;;5052024;28;20312;-70
2021/08/17 06:02:23;;;;;;;;;;;;;;;;;;5051869;28;19955;-71
2021/08/17 06:04:50;;;;;;;;;;;;;;;;;;5050065;28;19932;-71
2021/08/17 06:07:17;;;;;;;;;;;;;;;;;;5049035;28;20332;-69
2021/08/17 06:09:44;;;;;;;;;;;;;;;;;;5050216;28;19940;-70
2021/08/17 06:12:11;;;;;;;;;;;;;;;;;;5052703;28;19932;-70
2021/08/17 06:14:38;;;;;;;;;;;;;;;;;;5049812;28;19963;-70
2021/08/17 06:17:04;;;;;;;;;;;;;;;;;;5046142;28;19925;-70
2021/08/17 06:19:31;;;;;;;;;;;;;;;;;;5049040;28;19925;-70
2021/08/17 06:21:58;;;;;;;;;;;;;;;;;;5051829;28;20063;-69
2021/08/17 06:24:25;;;;;;;;;;;;;;;;;;5053051;28;19947;-70
2021/08/17 06:26:52;;;;;;;;;;;;;;;;;;5049172;28;19931;-70
2021/08/17 06:29:19;;;;;;;;;;;;;;;;;;5043814;28;19933;-71
2021/08/17 06:31:46;;;;;;;;;;;;;;;;;;5049860;28;20308;-71
2021/08/17 06:34:13;;;;;;;;;;;;;;;;;;5045626;28;19939;-71
2021/08/17 06:36:41;;;;;;;;;;;;;;;;;;5045238;28;19932;-71
2021/08/17 06:39:09;;;;;;;;;;;;;;;;;;5046038;28;19925;-69
2021/08/17 06:41:35;;;;;;;;;;;;;;;;;;5050685;28;19925;-72
2021/08/17 06:44:02;;;;;;;;;;;;;;;;;;5043056;28;19925;-70
2021/08/17 06:46:29;;;;;;;;;;;;;;;;;;5036292;28;19932;-69
2021/08/17 06:48:56;;;;;;;;;;;;;;;;;;5049139;28;20388;-71
2021/08/17 06:51:23;;;;;;;;;;;;;;;;;;5046725;28;20389;-71
2021/08/17 06:53:50;;;;;;;;;;;;;;;;;;5047981;28;20352;-71
2021/08/17 06:56:17;;;;;;;;;;;;;;;;;;5042253;28;19928;-71
2021/08/17 06:58:44;;;;;;;;;;;;;;;;;;5050514;28;19932;-71
2021/08/17 07:01:11;;;;;;;;;;;;;;;;;;5044449;28;19924;-71
2021/08/17 07:03:38;;;;;;;;;;;;;;;;;;5047351;28;19978;-71
2021/08/17 07:06:05;;;;;;;;;;;;;;;;;;5050396;28;19924;-71
2021/08/17 07:08:32;;;;;;;;;;;;;;;;;;5048788;28;19931;-71
2021/08/17 07:10:59;;;;;;;;;;;;;;;;;;5048703;28;19925;-71
2021/08/17 07:13:26;;;;;;;;;;;;;;;;;;5049511;28;19929;-71
2021/08/17 07:15:53;;;;;;;;;;;;;;;;;;5051595;28;20007;-71
2021/08/17 07:18:20;;;;;;;;;;;;;;;;;;5051070;28;19925;-71
2021/08/17 07:20:47;;;;;;;;;;;;;;;;;;5049142;28;19972;-71
2021/08/17 07:23:14;;;;;;;;;;;;;;;;;;5048966;28;20282;-71
2021/08/17 07:25:41;;;;;;;;;;;;;;;;;;5050440;28;19932;-71
2021/08/17 07:28:10;;;;;;;;;;;;;;;;;;5049052;28;19929;-71
2021/08/17 07:30:37;;;;;;;;;;;;;;;;;;5044114;28;19968;-71
2021/08/17 07:33:03;;;;;;;;;;;;;;;;;;5047553;28;20015;-71
2021/08/17 07:35:30;;;;;;;;;;;;;;;;;;5045215;28;19932;-71
2021/08/17 07:37:58;;;;;;;;;;;;;;;;;;5047337;28;19928;-71
2021/08/17 07:40:25;;;;;;;;;;;;;;;;;;5049790;28;19935;-71
2021/08/17 07:42:52;;;;;;;;;;;;;;;;;;5047834;28;20360;-69
2021/08/17 07:45:19;;;;;;;;;;;;;;;;;;5046774;28;19936;-71
2021/08/17 07:47:46;;;;;;;;;;;;;;;;;;5044840;28;19924;-71
2021/08/17 07:50:13;;;;;;;;;;;;;;;;;;5048954;28;19932;-71
2021/08/17 07:52:40;;;;;;;;;;;;;;;;;;5045829;28;20292;-71
2021/08/17 07:55:07;;;;;;;;;;;;;;;;;;5045641;28;19928;-71
2021/08/17 07:57:34;;;;;;;;;;;;;;;;;;5046357;28;19924;-72
2021/08/17 08:00:01;;;;;;;;;;;;;;;;;;5046340;28;19940;-69
2021/08/17 08:02:28;;;;;;;;;;;;;;;;;;5049293;28;19935;-69
2021/08/17 08:04:55;;;;;;;;;;;;;;;;;;5047743;28;19925;-69
2021/08/17 08:07:22;;;;;;;;;;;;;;;;;;5047275;28;19925;-69
2021/08/17 08:09:49;;;;;;;;;;;;;;;;;;5052206;28;20273;-70
2021/08/17 08:12:16;;;;;;;;;;;;;;;;;;5052359;28;20163;-70
2021/08/17 08:14:42;;;;;;;;;;;;;;;;;;5049012;28;19925;-70
2021/08/17 08:17:09;;;;;;;;;;;;;;;;;;5045664;28;19932;-70
2021/08/17 08:19:36;;;;;;;;;;;;;;;;;;5046907;28;20414;-69
2021/08/17 08:22:03;;;;;;;;;;;;;;;;;;5051993;28;19931;-70
2021/08/17 08:24:30;;;;;;;;;;;;;;;;;;5046596;28;20023;-70
2021/08/17 08:26:57;;;;;;;;;;;;;;;;;;5047871;28;20035;-70
2021/08/17 08:29:24;;;;;;;;;;;;;;;;;;5044786;28;19924;-70
2021/08/17 08:31:51;;;;;;;;;;;;;;;;;;5044287;28;19979;-69
2021/08/17 08:34:18;;;;;;;;;;;;;;;;;;5048700;28;19936;-69
2021/08/17 08:36:45;;;;;;;;;;;;;;;;;;5046515;28;19925;-69
2021/08/17 08:39:12;;;;;;;;;;;;;;;;;;5046722;28;20435;-69
2021/08/17 08:41:39;;;;;;;;;;;;;;;;;;5046567;28;20381;-69
2021/08/17 08:44:06;;;;;;;;;;;;;;;;;;5055487;28;19925;-69
2021/08/17 08:46:33;;;;;;;;;;;;;;;;;;5046762;28;19951;-70
2021/08/17 08:48:59;;;;;;;;;;;;;;;;;;5059775;28;19932;-68
2021/08/17 08:51:26;;;;;;;;;;;;;;;;;;5044648;28;19947;-69
2021/08/17 08:53:53;;;;;;;;;;;;;;;;;;5050588;28;20381;-70
2021/08/17 08:56:20;;;;;;;;;;;;;;;;;;5047867;28;19932;-69
2021/08/17 08:58:47;;;;;;;;;;;;;;;;;;5035896;28;19929;-69
2021/08/17 09:01:14;;;;;;;;;;;;;;;;;;5046951;28;20046;-69
2021/08/17 09:03:41;;;;;;;;;;;;;;;;;;5056285;28;20429;-69
2021/08/17 09:06:08;;;;;;;;;;;;;;;;;;5054861;28;19936;-70
2021/08/17 09:08:35;;;;;;;;;;;;;;;;;;5048291;28;20296;-69
2021/08/17 09:11:02;;;;;;;;;;;;;;;;;;5049534;28;20412;-69
2021/08/17 09:13:29;;;;;;;;;;;;;;;;;;5048804;28;19925;-69
2021/08/17 09:15:56;;;;;;;;;;;;;;;;;;5056752;28;19924;-69
2021/08/17 09:18:23;;;;;;;;;;;;;;;;;;5051441;28;20023;-69
2021/08/17 09:20:50;;;;;;;;;;;;;;;;;;5043856;28;20396;-69
2021/08/17 09:23:17;;;;;;;;;;;;;;;;;;5046577;28;19925;-70
2021/08/17 09:25:44;;;;;;;;;;;;;;;;;;5055260;28;19952;-70
2021/08/17 09:28:11;;;;;;;;;;;;;;;;;;5054484;28;20316;-70
2021/08/17 09:30:37;;;;;;;;;;;;;;;;;;5048123;28;19935;-70
2021/08/17 09:33:04;;;;;;;;;;;;;;;;;;5052746;28;19931;-69
2021/08/17 09:35:31;;;;;;;;;;;;;;;;;;5050468;28;19925;-69
2021/08/17 09:37:58;;;;;;;;;;;;;;;;;;5049385;28;19928;-70
2021/08/17 09:40:25;;;;;;;;;;;;;;;;;;5049287;28;19929;-70
2021/08/17 09:42:52;;;;;;;;;;;;;;;;;;5064679;22;19931;-68
2021/08/17 09:45:19;;;;;;;;;;;;;;;;;;5054325;28;19933;-68
2021/08/17 09:47:46;;;;;;;;;;;;;;;;;;5055181;28;20295;-68
2021/08/17 09:50:13;;;;;;;;;;;;;;;;;;5056215;28;20004;-69
2021/08/17 09:52:40;;;;;;;;;;;;;;;;;;5051158;28;20384;-68
2021/08/17 09:55:07;;;;;;;;;;;;;;;;;;5056007;28;19932;-68
2021/08/17 09:57:34;;;;;;;;;;;;;;;;;;5053499;28;19943;-68
2021/08/17 10:00:04;;;;;;;;;;;;;;;;;;5051366;28;19925;-68
2021/08/17 10:02:30;;;;;;;;;;;;;;;;;;5051510;28;19936;-68
2021/08/17 10:04:57;;;;;;;;;;;;;;;;;;5044660;28;19939;-68
2021/08/17 10:07:24;;;;;;;;;;;;;;;;;;5045897;28;20385;-68
2021/08/17 10:09:51;;;;;;;;;;;;;;;;;;5044556;28;19931;-68
2021/08/17 10:12:18;;;;;;;;;;;;;;;;;;5049652;28;19924;-68
2021/08/17 10:14:45;;;;;;;;;;;;;;;;;;5045266;28;19933;-68
2021/08/17 10:17:12;;;;;;;;;;;;;;;;;;5049486;28;19925;-68
2021/08/17 10:19:39;;;;;;;;;;;;;;;;;;5047755;28;19928;-68
2021/08/17 10:22:06;;;;;;;;;;;;;;;;;;5052877;28;19947;-68
2021/08/17 10:24:33;;;;;;;;;;;;;;;;;;5047597;28;19924;-68
2021/08/17 10:27:00;;;;;;;;;;;;;;;;;;5050262;28;19925;-68
2021/08/17 10:29:27;;;;;;;;;;;;;;;;;;5048552;28;20434;-68
2021/08/17 10:31:54;;;;;;;;;;;;;;;;;;5047924;28;20010;-68
2021/08/17 10:34:21;;;;;;;;;;;;;;;;;;5049237;28;19932;-68
2021/08/17 10:36:55;;;;;;;;;;;;;;;;;;5047071;28;19924;-67
2021/08/17 10:39:22;;;;;;;;;;;;;;;;;;5050776;28;19956;-68
2021/08/17 10:41:50;;;;;;;;;;;;;;;;;;5052684;28;19924;-67
2021/08/17 10:44:17;;;;;;;;;;;;;;;;;;5045017;28;19931;-67
2021/08/17 10:46:44;;;;;;;;;;;;;;;;;;5048469;28;19932;-68
2021/08/17 10:49:11;;;;;;;;;;;;;;;;;;5049501;28;19925;-67
2021/08/17 10:51:38;;;;;;;;;;;;;;;;;;5047396;28;19925;-67
2021/08/17 10:54:05;;;;;;;;;;;;;;;;;;5044990;28;19939;-68
2021/08/17 10:56:32;;;;;;;;;;;;;;;;;;5045088;28;19931;-67
2021/08/17 10:58:59;;;;;;;;;;;;;;;;;;5047921;28;20387;-66
2021/08/17 11:01:26;;;;;;;;;;;;;;;;;;5057920;28;19931;-67
2021/08/17 11:03:53;;;;;;;;;;;;;;;;;;5044592;28;19933;-67
2021/08/17 11:06:20;;;;;;;;;;;;;;;;;;5043381;28;19924;-68
2021/08/17 11:08:47;;;;;;;;;;;;;;;;;;5042587;28;19931;-67
2021/08/17 11:11:14;;;;;;;;;;;;;;;;;;5041277;28;20482;-68
2021/08/17 11:13:41;;;;;;;;;;;;;;;;;;5044865;28;19937;-67
2021/08/17 11:16:08;;;;;;;;;;;;;;;;;;5043866;28;19939;-68
2021/08/17 11:18:35;;;;;;;;;;;;;;;;;;5049047;28;19929;-68
2021/08/17 11:21:02;;;;;;;;;;;;;;;;;;5038739;28;19935;-68
2021/08/17 11:23:29;;;;;;;;;;;;;;;;;;5043201;28;19925;-68
2021/08/17 11:25:56;;;;;;;;;;;;;;;;;;5043785;28;19925;-66
2021/08/17 11:28:23;;;;;;;;;;;;;;;;;;5045366;28;20404;-67
2021/08/17 11:30:50;;;;;;;;;;;;;;;;;;5041783;28;19933;-67
2021/08/17 11:33:17;;;;;;;;;;;;;;;;;;5039460;28;20411;-67
2021/08/17 11:35:44;;;;;;;;;;;;;;;;;;5046329;28;19939;-67
2021/08/17 11:38:11;;;;;;;;;;;;;;;;;;5047423;28;19933;-67
2021/08/17 11:40:38;;;;;;;;;;;;;;;;;;5047703;28;19972;-67
2021/08/17 11:43:05;;;;;;;;;;;;;;;;;;5044513;28;19933;-67
2021/08/17 11:45:33;;;;;;;;;;;;;;;;;;5043094;28;19936;-66
2021/08/17 11:48:00;;;;;;;;;;;;;;;;;;5045928;28;19929;-66
2021/08/17 11:50:27;;;;;;;;;;;;;;;;;;5046457;28;19932;-67
2021/08/17 11:52:54;;;;;;;;;;;;;;;;;;5037774;28;19932;-66
2021/08/17 11:55:21;;;;;;;;;;;;;;;;;;5042585;28;19939;-67
2021/08/17 11:57:48;;;;;;;;;;;;;;;;;;5047205;28;19925;-67
2021/08/17 12:00:15;;;;;;;;;;;;;;;;;;5036697;28;19939;-67
2021/08/17 12:02:42;;;;;;;;;;;;;;;;;;5047286;28;19931;-67
2021/08/17 12:05:09;;;;;;;;;;;;;;;;;;5046801;28;19924;-67
2021/08/17 12:07:36;;;;;;;;;;;;;;;;;;5047930;28;19932;-67
2021/08/17 12:10:03;;;;;;;;;;;;;;;;;;5040991;28;19932;-66
2021/08/17 12:12:30;;;;;;;;;;;;;;;;;;5045642;28;20401;-67
2021/08/17 12:14:57;;;;;;;;;;;;;;;;;;5043929;28;19925;-66
2021/08/17 12:17:24;;;;;;;;;;;;;;;;;;5047559;28;19924;-67
2021/08/17 12:19:51;;;;;;;;;;;;;;;;;;5038352;28;19925;-67
2021/08/17 12:22:18;;;;;;;;;;;;;;;;;;5046348;28;19935;-64
2021/08/17 12:24:45;;;;;;;;;;;;;;;;;;5046006;28;19933;-66
2021/08/17 12:27:12;;;;;;;;;;;;;;;;;;5041948;28;19925;-66
2021/08/17 12:29:39;;;;;;;;;;;;;;;;;;5037921;28;20396;-66
2021/08/17 12:32:06;;;;;;;;;;;;;;;;;;5043075;28;19971;-65
2021/08/17 12:34:33;;;;;;;;;;;;;;;;;;5045124;28;20464;-66
2021/08/17 12:37:00;;;;;;;;;;;;;;;;;;5050584;28;19929;-68
2021/08/17 12:39:28;;;;;;;;;;;;;;;;;;5039476;28;19925;-66
2021/08/17 12:41:55;;;;;;;;;;;;;;;;;;5045597;28;19959;-67
2021/08/17 12:44:22;;;;;;;;;;;;;;;;;;5046320;28;19931;-67
2021/08/17 12:46:49;;;;;;;;;;;;;;;;;;5042458;28;20369;-67
2021/08/17 12:49:16;;;;;;;;;;;;;;;;;;5042882;28;20277;-66
2021/08/17 12:51:43;;;;;;;;;;;;;;;;;;5044253;28;19925;-67
2021/08/17 12:54:10;;;;;;;;;;;;;;;;;;5047871;28;19932;-66
2021/08/17 12:56:37;;;;;;;;;;;;;;;;;;5043750;28;19943;-67
2021/08/17 12:59:04;;;;;;;;;;;;;;;;;;5045499;28;20416;-65
2021/08/17 13:01:31;;;;;;;;;;;;;;;;;;5051291;28;19936;-67
2021/08/17 13:03:58;;;;;;;;;;;;;;;;;;5050121;28;20312;-66
2021/08/17 13:06:25;;;;;;;;;;;;;;;;;;5052395;28;20105;-67
2021/08/17 13:08:52;;;;;;;;;;;;;;;;;;5046396;28;19932;-66
2021/08/17 13:11:19;;;;;;;;;;;;;;;;;;5043500;28;20028;-67
2021/08/17 13:13:46;;;;;;;;;;;;;;;;;;5046156;28;19925;-67
2021/08/17 13:16:13;;;;;;;;;;;;;;;;;;5052194;28;19932;-66
2021/08/17 13:18:40;;;;;;;;;;;;;;;;;;5051518;28;20540;-66
2021/08/17 13:21:07;;;;;;;;;;;;;;;;;;5049833;28;20396;-65
2021/08/17 13:23:34;;;;;;;;;;;;;;;;;;5051392;28;19931;-66
2021/08/17 13:26:01;;;;;;;;;;;;;;;;;;5054929;28;19924;-64
2021/08/17 13:28:28;;;;;;;;;;;;;;;;;;5047880;28;19931;-66
2021/08/17 13:30:55;;;;;;;;;;;;;;;;;;5050682;28;20401;-67
2021/08/17 13:33:22;;;;;;;;;;;;;;;;;;5053981;28;19929;-65
2021/08/17 13:35:49;;;;;;;;;;;;;;;;;;5045114;28;19925;-66
2021/08/17 13:38:16;;;;;;;;;;;;;;;;;;5053130;28;19924;-67
2021/08/17 13:40:45;;;;;;;;;;;;;;;;;;5046197;28;19931;-67
2021/08/17 13:43:12;;;;;;;;;;;;;;;;;;5049069;28;20296;-66
2021/08/17 13:45:39;;;;;;;;;;;;;;;;;;5045805;28;19929;-67
2021/08/17 13:48:06;;;;;;;;;;;;;;;;;;5046527;28;19931;-66
2021/08/17 13:50:33;;;;;;;;;;;;;;;;;;5048120;28;19928;-65
2021/08/17 13:53:00;;;;;;;;;;;;;;;;;;5045470;28;19947;-66
2021/08/17 13:55:27;;;;;;;;;;;;;;;;;;5044537;28;19933;-68
2021/08/17 13:57:54;;;;;;;;;;;;;;;;;;5043096;28;20015;-66
2021/08/17 14:00:21;;;;;;;;;;;;;;;;;;5044690;28;19939;-66
2021/08/17 14:02:48;;;;;;;;;;;;;;;;;;5041975;28;19925;-68
2021/08/17 14:05:15;;;;;;;;;;;;;;;;;;5047322;28;20317;-67
2021/08/17 14:07:42;;;;;;;;;;;;;;;;;;5047556;28;20304;-66
2021/08/17 14:10:10;;;;;;;;;;;;;;;;;;5044535;28;20367;-67
2021/08/17 14:12:37;;;;;;;;;;;;;;;;;;5044684;28;20351;-67
2021/08/17 14:15:04;;;;;;;;;;;;;;;;;;5047680;28;20019;-67
2021/08/17 14:17:31;;;;;;;;;;;;;;;;;;5046010;28;19944;-66
2021/08/17 14:19:58;;;;;;;;;;;;;;;;;;5042859;28;19924;-67
2021/08/17 14:22:25;;;;;;;;;;;;;;;;;;5043496;28;19951;-66
2021/08/17 14:24:52;;;;;;;;;;;;;;;;;;5042950;28;20411;-67
2021/08/17 14:27:19;;;;;;;;;;;;;;;;;;5045650;28;19932;-66
2021/08/17 14:29:49;;;;;;;;;;;;;;;;;;5036018;28;19933;-66
2021/08/17 14:32:16;;;;;;;;;;;;;;;;;;5040717;28;19929;-68
2021/08/17 14:34:43;;;;;;;;;;;;;;;;;;5042302;28;19925;-68
2021/08/17 14:37:10;;;;;;;;;;;;;;;;;;5046599;28;19955;-66
2021/08/17 14:39:37;;;;;;;;;;;;;;;;;;5040787;28;19925;-67
2021/08/17 14:42:04;;;;;;;;;;;;;;;;;;5044509;28;19951;-67
2021/08/17 14:44:31;;;;;;;;;;;;;;;;;;5043113;28;19935;-68
2021/08/17 14:46:58;;;;;;;;;;;;;;;;;;5041481;28;20011;-69
2021/08/17 14:49:25;;;;;;;;;;;;;;;;;;5043070;28;19933;-68
2021/08/17 14:51:52;;;;;;;;;;;;;;;;;;5038893;28;19968;-67
2021/08/17 14:54:19;;;;;;;;;;;;;;;;;;5041661;28;19931;-68
2021/08/17 14:56:46;;;;;;;;;;;;;;;;;;5045328;28;20389;-67
2021/08/17 14:59:13;;;;;;;;;;;;;;;;;;5040777;28;19935;-69
2021/08/17 15:01:40;;;;;;;;;;;;;;;;;;5039958;28;19932;-67
2021/08/17 15:04:07;;;;;;;;;;;;;;;;;;5040974;28;19936;-69
2021/08/17 15:06:34;;;;;;;;;;;;;;;;;;5043183;28;19929;-66
2021/08/17 15:09:01;;;;;;;;;;;;;;;;;;5042562;28;19935;-66
2021/08/17 15:11:28;;;;;;;;;;;;;;;;;;5042554;28;19925;-67
2021/08/17 15:13:55;;;;;;;;;;;;;;;;;;5044388;28;19949;-68
2021/08/17 15:16:22;;;;;;;;;;;;;;;;;;5044867;28;19939;-67
2021/08/17 15:18:49;;;;;;;;;;;;;;;;;;5042829;28;19925;-68
2021/08/17 15:21:16;;;;;;;;;;;;;;;;;;5043980;28;19995;-66
2021/08/17 15:23:43;;;;;;;;;;;;;;;;;;5043569;28;19925;-68
2021/08/17 15:26:10;;;;;;;;;;;;;;;;;;5045445;28;19932;-68
2021/08/17 15:28:37;;;;;;;;;;;;;;;;;;5043647;28;19931;-67
2021/08/17 15:31:04;;;;;;;;;;;;;;;;;;5038113;28;19927;-68
2021/08/17 15:33:31;;;;;;;;;;;;;;;;;;5044112;28;19932;-68
2021/08/17 15:35:58;;;;;;;;;;;;;;;;;;5044710;28;20059;-67
2021/08/17 15:38:25;;;;;;;;;;;;;;;;;;5040690;28;19937;-67
2021/08/17 15:40:53;;;;;;;;;;;;;;;;;;5056492;23;19925;-66
2021/08/17 15:43:20;;;;;;;;;;;;;;;;;;5002848;28;20011;-68
2021/08/17 15:45:47;;;;;;;;;;;;;;;;;;5005939;28;19941;-66
2021/08/17 15:48:14;;;;;;;;;;;;;;;;;;5004181;28;20020;-66
2021/08/17 15:50:43;;;;;;;;;;;;;;;;;;5007206;28;19929;-66
2021/08/17 15:53:10;;;;;;;;;;;;;;;;;;5002875;28;19929;-66
2021/08/17 15:55:37;;;;;;;;;;;;;;;;;;5008921;28;19932;-67
2021/08/17 15:58:05;;;;;;;;;;;;;;;;;;5001926;28;20325;-66
2021/08/17 16:00:33;;;;;;;;;;;;;;;;;;5002799;28;19972;-66
2021/08/17 16:03:00;;;;;;;;;;;;;;;;;;5004301;28;19930;-66
2021/08/17 16:05:27;;;;;;;;;;;;;;;;;;5007706;28;19926;-66
2021/08/17 16:07:54;;;;;;;;;;;;;;;;;;5005735;28;19929;-66
2021/08/17 16:10:21;;;;;;;;;;;;;;;;;;5004727;28;20004;-67
2021/08/17 16:12:50;;;;;;;;;;;;;;;;;;5001035;28;19925;-67
2021/08/17 16:15:16;;;;;;;;;;;;;;;;;;5003499;28;19991;-66
2021/08/17 16:17:46;;;;;;;;;;;;;;;;;;5007884;28;19964;-67
2021/08/17 16:20:13;;;;;;;;;;;;;;;;;;5006098;28;20368;-66
2021/08/17 16:22:40;;;;;;;;;;;;;;;;;;5005900;28;19984;-66
2021/08/17 16:25:07;;;;;;;;;;;;;;;;;;5005959;28;20369;-66
2021/08/17 16:27:33;;;;;;;;;;;;;;;;;;5005293;28;19936;-66
2021/08/17 16:30:01;;;;;;;;;;;;;;;;;;5004618;28;19936;-65
2021/08/17 16:32:27;;;;;;;;;;;;;;;;;;5001571;28;19995;-66
2021/08/17 16:34:54;;;;;;;;;;;;;;;;;;5005384;28;19936;-65
2021/08/17 16:37:21;;;;;;;;;;;;;;;;;;5004492;28;19935;-68
2021/08/17 16:39:48;;;;;;;;;;;;;;;;;;5004747;28;19936;-67
2021/08/17 16:42:15;;;;;;;;;;;;;;;;;;5005437;28;19930;-67
2021/08/17 16:44:42;;;;;;;;;;;;;;;;;;5004684;28;19926;-67